Time;durP1;ratioP1;P1;durP2;ratioP2;P2;SDS_P1;SDS_P2;PMS_P1;PMS_P2;Temp;Humidity;BMP_temperature;BMP_pressure;BME280_temperature;BME280_humidity;BME280_pressure;Samples;Min_cycle;Max_cycle;Signal;HPM_P1;HPM_P2
2024/04/19 00:02:04;;;;;;;5.65;1.98;;;;;;;16.60;38.71;101347.91;5380984;26;20032;-63
2024/04/19 00:04:29;;;;;;;4.68;1.58;;;;;;;16.58;39.23;101331.00;5351815;26;20000;-63
2024/04/19 00:06:55;;;;;;;4.25;1.73;;;;;;;16.64;38.58;101342.03;5352369;26;20459;-63
2024/04/19 00:09:20;;;;;;;6.15;1.92;;;;;;;16.67;38.64;101330.03;5324083;26;20006;-63
2024/04/19 00:11:46;;;;;;;2.90;1.20;;;;;;;16.66;39.03;101331.91;5322362;26;20047;-63
2024/04/19 00:14:12;;;;;;;5.78;1.90;;;;;;;16.69;38.75;101322.63;5349908;26;20007;-63
2024/04/19 00:16:37;;;;;;;5.40;1.70;;;;;;;16.71;38.78;101321.47;5349755;26;20012;-62
2024/04/19 00:19:03;;;;;;;4.30;1.50;;;;;;;16.69;38.97;101312.69;5350091;26;20001;-62
2024/04/19 00:21:28;;;;;;;1.50;1.13;;;;;;;16.68;38.79;101299.28;5351864;26;20047;-62
2024/04/19 00:23:53;;;;;;;1.80;1.42;;;;;;;16.68;39.03;101302.00;5352845;26;20329;-63
2024/04/19 00:26:21;;;;;;;4.65;1.52;;;;;;;16.67;38.66;101284.06;5353341;26;20008;-62
2024/04/19 00:28:46;;;;;;;1.92;1.35;;;;;;;16.67;39.04;101295.72;5353184;26;20407;-62
2024/04/19 00:31:12;;;;;;;2.78;1.13;;;;;;;16.68;39.41;101294.72;5353006;26;20043;-62
2024/04/19 00:33:37;;;;;;;2.63;1.73;;;;;;;16.69;38.76;101306.41;5295557;26;19997;-63
2024/04/19 00:36:03;;;;;;;5.25;1.85;;;;;;;16.67;39.55;101292.16;5352992;26;19997;-62
2024/04/19 00:38:29;;;;;;;7.72;1.75;;;;;;;16.65;38.97;101288.78;5353181;26;20011;-62
2024/04/19 00:40:54;;;;;;;4.07;1.40;;;;;;;16.63;39.58;101291.66;5353205;26;20000;-63
2024/04/19 00:43:20;;;;;;;2.05;1.35;;;;;;;16.61;39.37;101285.53;5352992;26;19996;-63
2024/04/19 00:45:46;;;;;;;2.85;1.90;;;;;;;16.56;39.68;101274.34;5383963;26;20028;-63
2024/04/19 00:48:16;;;;;;;4.93;1.52;;;;;;;16.52;39.49;101281.06;5412678;26;20004;-62
2024/04/19 00:50:56;;;;;;;3.28;1.40;;;;;;;16.45;39.35;101271.84;5422093;26;20011;-63
2024/04/19 00:53:27;;;;;;;3.40;1.38;;;;;;;16.43;39.75;101267.59;5390465;26;19999;-62
2024/04/19 00:55:59;;;;;;;7.00;1.40;;;;;;;16.38;39.59;101265.38;5388102;26;20007;-62
2024/04/19 00:58:26;;;;;;;1.30;1.05;;;;;;;16.36;39.60;101267.38;5359385;26;20010;-62
2024/04/19 01:00:52;;;;;;;2.00;0.93;;;;;;;16.32;39.48;101266.00;5330054;26;20004;-62
2024/04/19 01:03:17;;;;;;;3.20;1.08;;;;;;;16.26;39.42;101244.97;5358825;26;20004;-62
2024/04/19 01:05:43;;;;;;;1.67;1.10;;;;;;;16.20;39.82;101253.72;5387766;26;20339;-62
2024/04/19 01:08:27;;;;;;;2.20;1.50;;;;;;;16.14;39.72;101252.47;5362953;26;19999;-62
2024/04/19 01:10:53;;;;;;;3.10;1.00;;;;;;;16.08;39.94;101230.66;5387843;26;20000;-62
2024/04/19 01:13:19;;;;;;;1.67;0.98;;;;;;;16.12;40.16;101238.28;5358836;26;20014;-62
2024/04/19 01:15:44;;;;;;;5.75;1.73;;;;;;;16.13;40.04;101231.03;5387590;26;20035;-62
2024/04/19 01:18:10;;;;;;;1.23;1.13;;;;;;;16.14;40.36;101224.59;5387594;26;20014;-62
2024/04/19 01:20:36;;;;;;;3.55;1.23;;;;;;;16.11;40.62;101206.84;5358538;26;20015;-62
2024/04/19 01:23:02;;;;;;;4.72;1.70;;;;;;;16.17;40.27;101208.91;5418828;26;20003;-62
2024/04/19 01:25:36;;;;;;;3.75;1.77;;;;;;;16.20;40.23;101213.16;5387574;26;20011;-62
2024/04/19 01:28:06;;;;;;;3.25;1.20;;;;;;;16.21;40.32;101204.91;5387444;26;19999;-62
2024/04/19 01:30:32;;;;;;;4.00;1.45;;;;;;;16.22;40.31;101194.94;5329358;26;20007;-62
2024/04/19 01:32:58;;;;;;;3.50;1.70;;;;;;;16.24;40.17;101192.94;5386749;26;20008;-62
2024/04/19 01:35:24;;;;;;;2.42;1.50;;;;;;;16.24;40.27;101192.94;5418803;26;20439;-63
2024/04/19 01:37:53;;;;;;;2.10;1.30;;;;;;;16.21;40.06;101188.69;5419862;26;20018;-62
2024/04/19 01:40:18;;;;;;;1.77;1.55;;;;;;;16.17;40.75;101184.59;5358756;26;20011;-62
2024/04/19 01:42:43;;;;;;;2.25;1.50;;;;;;;16.14;40.58;101175.94;5387205;26;20015;-63
2024/04/19 01:45:09;;;;;;;5.10;1.52;;;;;;;16.14;40.55;101170.53;5357923;26;20015;-62
2024/04/19 01:47:35;;;;;;;5.72;1.45;;;;;;;16.11;40.82;101165.44;5358059;26;20010;-62
2024/04/19 01:50:00;;;;;;;2.80;1.70;;;;;;;16.12;40.49;101167.16;5387292;26;20007;-62
2024/04/19 01:52:26;;;;;;;4.07;1.70;;;;;;;16.11;40.31;101169.00;5357908;26;20517;-62
2024/04/19 01:54:51;;;;;;;6.50;1.58;;;;;;;16.07;40.72;101161.38;5387308;26;20076;-63
2024/04/19 01:57:17;;;;;;;6.90;1.48;;;;;;;16.05;41.00;101150.69;5387051;26;20003;-62
2024/04/19 01:59:43;;;;;;;6.25;1.67;;;;;;;16.05;40.67;101152.59;5418757;26;20004;-62
2024/04/19 02:02:08;;;;;;;5.93;1.75;;;;;;;16.03;40.85;101146.47;5387155;26;20015;-62
2024/04/19 02:04:34;;;;;;;4.53;1.20;;;;;;;16.02;40.74;101140.22;5387012;26;20015;-63
2024/04/19 02:06:59;;;;;;;3.35;1.90;;;;;;;16.00;40.55;101141.38;5357820;26;20436;-62
2024/04/19 02:09:37;;;;;;;3.53;1.58;;;;;;;15.92;41.09;101138.59;5386728;26;20339;-62
2024/04/19 02:12:02;;;;;;;2.65;1.17;;;;;;;15.89;41.15;101122.69;5387322;26;19999;-62
2024/04/19 02:14:30;;;;;;;3.10;1.83;;;;;;;15.86;41.52;101117.59;5386772;26;20079;-62
2024/04/19 02:16:57;;;;;;;3.60;1.17;;;;;;;15.88;41.00;101123.72;5358307;26;20014;-62
2024/04/19 02:19:23;;;;;;;3.42;1.63;;;;;;;15.86;41.44;101117.59;5357876;26;20331;-62
2024/04/19 02:21:48;;;;;;;4.28;2.00;;;;;;;15.84;41.23;101098.00;5387034;26;20080;-62
2024/04/19 02:24:14;;;;;;;4.97;2.10;;;;;;;15.80;41.37;101093.94;5357350;26;20472;-62
2024/04/19 02:26:40;;;;;;;1.45;1.00;;;;;;;15.78;41.84;101099.50;5329333;26;20065;-62
2024/04/19 02:31:50;;;;;;;3.60;2.17;;;;;;;15.70;41.67;101086.78;5361999;26;19999;-62
2024/04/19 02:34:15;;;;;;;3.90;2.03;;;;;;;15.67;42.07;101087.06;5357769;26;19996;-62
2024/04/19 02:36:41;;;;;;;6.65;2.13;;;;;;;15.63;41.95;101091.09;5418494;26;20075;-62
2024/04/19 02:39:06;;;;;;;2.78;1.48;;;;;;;15.62;41.71;101081.31;5386989;26;20003;-62
2024/04/19 02:41:32;;;;;;;2.95;1.50;;;;;;;15.59;42.42;101073.50;5385994;26;19996;-63
2024/04/19 02:43:58;;;;;;;5.40;1.50;;;;;;;15.58;42.12;101071.81;5386195;26;19991;-63
2024/04/19 02:46:23;;;;;;;8.35;1.85;;;;;;;15.57;42.57;101064.72;5386395;26;19996;-63
2024/04/19 02:48:50;;;;;;;3.28;1.73;;;;;;;15.50;42.28;101069.03;5386287;26;19999;-62
2024/04/19 02:51:16;;;;;;;2.40;1.25;;;;;;;15.48;42.45;101065.66;5417513;26;20616;-62
2024/04/19 02:53:42;;;;;;;4.05;1.73;;;;;;;15.51;42.77;101068.03;5357210;26;20006;-62
2024/04/19 02:56:08;;;;;;;2.92;1.65;;;;;;;15.46;42.71;101062.25;5386679;26;20012;-62
2024/04/19 02:58:33;;;;;;;2.50;1.58;;;;;;;15.48;42.67;101054.84;5356839;26;20006;-62
2024/04/19 03:00:58;;;;;;;5.00;2.33;;;;;;;15.47;43.02;101061.25;5386112;26;20007;-62
2024/04/19 03:03:24;;;;;;;4.80;1.88;;;;;;;15.41;43.05;101047.50;5328155;26;20542;-62
2024/04/19 03:05:53;;;;;;;5.75;1.95;;;;;;;15.38;43.06;101043.22;5356881;26;20065;-62
2024/04/19 03:08:19;;;;;;;2.90;1.80;;;;;;;15.35;43.19;101048.97;5357743;26;20011;-62
2024/04/19 03:10:45;;;;;;;3.53;1.83;;;;;;;15.28;43.65;101041.63;5357061;26;20002;-62
2024/04/19 03:13:11;;;;;;;3.95;3.05;;;;;;;15.18;43.30;101035.47;5352228;26;19995;-62
2024/04/19 03:15:37;;;;;;;5.32;1.85;;;;;;;15.09;43.75;101026.44;5356702;26;20059;-62
2024/04/19 03:18:04;;;;;;;2.28;1.73;;;;;;;15.04;43.66;101034.16;5356997;26;20039;-62
2024/04/19 03:20:29;;;;;;;2.45;1.80;;;;;;;14.96;44.00;101021.41;5415485;26;20007;-62
2024/04/19 03:22:54;;;;;;;2.65;1.50;;;;;;;14.93;44.05;101016.34;5385715;26;20015;-62
2024/04/19 03:25:20;;;;;;;13.10;3.05;;;;;;;14.89;44.21;101003.28;5385525;26;19996;-63
2024/04/19 03:27:45;;;;;;;4.97;1.50;;;;;;;14.89;43.94;101003.28;5417436;26;20499;-63
2024/04/19 03:30:11;;;;;;;6.30;2.38;;;;;;;14.83;44.21;100990.41;5385625;26;20003;-63
2024/04/19 03:32:37;;;;;;;5.13;1.85;;;;;;;14.82;44.07;100994.13;5385422;26;20006;-63
2024/04/19 03:35:03;;;;;;;4.30;1.40;;;;;;;14.80;44.41;100974.53;5416901;26;20019;-63
2024/04/19 03:37:29;;;;;;;3.25;1.40;;;;;;;14.75;44.54;100974.16;5356488;26;20011;-63
2024/04/19 03:39:54;;;;;;;3.35;1.88;;;;;;;14.74;44.61;100969.78;5356701;26;20452;-64
2024/04/19 03:42:20;;;;;;;3.72;1.70;;;;;;;14.71;44.90;100968.22;5417079;26;20014;-64
2024/04/19 03:47:32;;;;;;;2.83;1.83;;;;;;;14.63;45.03;100962.72;5416994;26;20435;-67
2024/04/19 03:49:59;;;;;;;7.13;1.65;;;;;;;14.53;44.81;100954.72;5386211;26;20019;-72
2024/04/19 03:52:24;;;;;;;1.63;1.13;;;;;;;14.55;44.88;100951.84;5385706;26;20401;-72
2024/04/19 03:54:49;;;;;;;1.83;1.05;;;;;;;14.50;45.05;100938.84;5387128;26;20011;-72
2024/04/19 03:57:15;;;;;;;2.05;1.50;;;;;;;14.49;45.11;100942.53;5389097;26;20011;-72
2024/04/19 03:59:41;;;;;;;4.35;1.80;;;;;;;14.47;45.26;100941.00;5330846;26;20003;-72
2024/04/19 04:02:12;;;;;;;1.98;1.30;;;;;;;14.43;45.28;100939.63;5361141;26;20007;-72
2024/04/19 04:04:52;;;;;;;1.52;1.10;;;;;;;14.38;45.48;100928.41;5392945;26;19996;-72
2024/04/19 04:07:18;;;;;;;4.78;1.50;;;;;;;14.36;45.80;100928.56;5359749;26;20069;-73
2024/04/19 04:09:43;;;;;;;2.13;1.00;;;;;;;14.32;45.68;100924.47;5359989;26;20010;-72
2024/04/19 04:12:08;;;;;;;2.00;1.13;;;;;;;14.26;45.57;100919.69;5359603;26;20072;-73
2024/04/19 04:14:34;;;;;;;3.08;1.58;;;;;;;14.27;45.88;100915.13;5419867;26;20085;-73
2024/04/19 04:16:59;;;;;;;1.80;1.33;;;;;;;14.21;45.72;100903.09;5420470;26;20018;-74
2024/04/19 04:19:25;;;;;;;3.60;1.42;;;;;;;14.22;46.09;100907.50;5330914;26;20015;-73
2024/04/19 04:21:50;;;;;;;1.38;1.15;;;;;;;14.15;45.84;100901.03;5330851;26;20011;-74
2024/04/19 04:24:16;;;;;;;3.08;1.40;;;;;;;14.14;46.15;100899.31;5388805;26;20331;-73
2024/04/19 04:26:41;;;;;;;1.10;1.00;;;;;;;14.11;46.42;100902.31;5359999;26;20435;-73
2024/04/19 04:29:07;;;;;;;4.25;1.40;;;;;;;14.06;46.52;100891.16;5419818;26;20018;-73
2024/04/19 04:31:32;;;;;;;2.85;1.60;;;;;;;14.11;46.25;100890.69;5419908;26;20053;-74
2024/04/19 04:33:58;;;;;;;1.88;1.33;;;;;;;14.00;46.35;100887.22;5359204;26;20000;-75
2024/04/19 04:36:23;;;;;;;2.60;1.25;;;;;;;14.10;46.68;100887.13;5419689;26;19999;-73
2024/04/19 04:38:49;;;;;;;1.88;1.25;;;;;;;14.11;46.33;100886.16;5388346;26;20000;-74
2024/04/19 04:41:15;;;;;;;1.67;1.20;;;;;;;14.13;46.75;100881.44;5417810;26;20007;-73
2024/04/19 04:43:41;;;;;;;4.28;1.40;;;;;;;14.13;46.62;100888.69;5359048;26;20003;-73
2024/04/19 04:46:07;;;;;;;2.92;0.98;;;;;;;14.11;46.47;100878.06;5359014;26;20011;-73
2024/04/19 04:48:32;;;;;;;1.50;1.00;;;;;;;14.15;46.27;100876.78;5419297;26;20451;-72
2024/04/19 04:50:59;;;;;;;2.70;1.42;;;;;;;14.16;46.71;100859.59;5359147;26;20010;-72
2024/04/19 04:53:25;;;;;;;2.17;1.27;;;;;;;14.12;46.81;100862.75;5388343;26;20000;-73
2024/04/19 04:55:53;;;;;;;1.55;1.17;;;;;;;14.12;46.92;100854.69;5388248;26;20018;-73
2024/04/19 04:58:18;;;;;;;2.38;1.50;;;;;;;14.13;46.82;100857.22;5388856;26;20018;-66
2024/04/19 05:00:44;;;;;;;3.08;1.50;;;;;;;14.17;46.66;100853.22;5388007;26;20000;-65
2024/04/19 05:03:09;;;;;;;2.80;1.50;;;;;;;14.20;46.99;100844.00;5388044;26;20003;-64
2024/04/19 05:05:35;;;;;;;2.38;1.27;;;;;;;14.22;47.07;100850.06;5329994;26;20050;-64
2024/04/19 05:08:00;;;;;;;2.47;1.40;;;;;;;14.23;47.13;100855.31;5357679;26;20000;-63
2024/04/19 05:10:26;;;;;;;3.97;1.27;;;;;;;14.25;47.05;100852.47;5387903;26;20015;-63
2024/04/19 05:12:51;;;;;;;8.30;1.10;;;;;;;14.23;47.36;100849.94;5387877;26;20076;-63
2024/04/19 05:15:17;;;;;;;2.13;1.20;;;;;;;14.27;47.11;100845.91;5359371;26;20000;-62
2024/04/19 05:17:45;;;;;;;1.48;1.38;;;;;;;14.30;47.17;100837.53;5388986;26;20008;-63
2024/04/19 05:20:11;;;;;;;2.33;1.20;;;;;;;14.32;46.98;100843.63;5360228;26;20007;-63
2024/04/19 05:22:37;;;;;;;1.45;1.25;;;;;;;14.36;47.32;100839.66;5358766;26;20007;-62
2024/04/19 05:25:12;;;;;;;3.28;1.65;;;;;;;14.40;47.29;100840.19;5358589;26;20011;-63
2024/04/19 05:27:38;;;;;;;1.67;1.27;;;;;;;14.40;47.47;100832.97;5329753;26;20435;-63
2024/04/19 05:30:04;;;;;;;1.67;1.20;;;;;;;14.45;47.43;100827.94;5358459;26;20004;-64
2024/04/19 05:32:30;;;;;;;4.32;1.60;;;;;;;14.45;47.43;100827.94;5418991;26;20440;-66
2024/04/19 05:34:55;;;;;;;2.65;1.20;;;;;;;14.48;47.76;100818.72;5358803;26;20011;-68
2024/04/19 05:37:21;;;;;;;1.92;1.13;;;;;;;14.45;47.73;100822.56;5418971;26;20012;-68
2024/04/19 05:39:46;;;;;;;2.38;1.30;;;;;;;14.40;47.68;100818.63;5358454;26;20466;-68
2024/04/19 05:42:12;;;;;;;1.73;1.20;;;;;;;14.41;47.50;100815.78;5358393;26;20433;-67
2024/04/19 05:44:37;;;;;;;3.50;1.38;;;;;;;14.43;47.77;100808.38;5387592;26;20436;-67
2024/04/19 05:47:03;;;;;;;3.08;1.58;;;;;;;14.45;48.00;100806.38;5358145;26;20076;-67
2024/04/19 05:49:29;;;;;;;2.20;1.38;;;;;;;14.47;48.11;100815.16;5387529;26;20015;-66
2024/04/19 05:51:54;;;;;;;2.00;1.33;;;;;;;14.46;47.92;100797.28;5387391;26;20004;-65
2024/04/19 05:54:20;;;;;;;2.65;1.75;;;;;;;14.50;48.07;100800.53;5387503;26;20447;-65
2024/04/19 05:56:45;;;;;;;2.60;1.95;;;;;;;14.54;48.13;100800.03;5387676;26;20382;-64
2024/04/19 05:59:11;;;;;;;2.80;1.73;;;;;;;14.55;48.19;100803.59;5387601;26;20018;-64
2024/04/19 06:01:36;;;;;;;2.17;1.35;;;;;;;14.61;48.29;100810.22;5418769;26;20018;-62
2024/04/19 06:04:02;;;;;;;5.60;1.77;;;;;;;14.65;48.20;100798.97;5387751;26;20003;-64
2024/04/19 06:06:27;;;;;;;3.15;1.65;;;;;;;14.69;48.22;100796.78;5387541;26;20019;-63
2024/04/19 06:08:53;;;;;;;4.13;1.80;;;;;;;14.73;48.20;100793.66;5419709;26;19999;-71
2024/04/19 06:11:18;;;;;;;2.72;1.45;;;;;;;14.80;48.13;100788.47;5360288;26;19995;-71
2024/04/19 06:13:44;;;;;;;1.88;1.30;;;;;;;14.82;48.06;100787.31;5421179;26;20003;-72
2024/04/19 06:16:10;;;;;;;1.70;1.60;;;;;;;14.85;47.89;100773.50;5421870;26;20043;-73
2024/04/19 06:18:39;;;;;;;1.52;1.20;;;;;;;14.83;48.61;100772.81;5387678;26;20011;-72
2024/04/19 06:21:05;;;;;;;2.20;1.50;;;;;;;14.86;48.63;100774.34;5329552;26;20031;-71
2024/04/19 06:23:32;;;;;;;2.63;1.33;;;;;;;14.88;48.42;100766.97;5358418;26;20057;-71
2024/04/19 06:26:02;;;;;;;2.08;1.30;;;;;;;14.91;48.79;100759.38;5358352;26;20019;-72
2024/04/19 06:28:30;;;;;;;1.33;0.98;;;;;;;14.96;48.54;100761.63;5418839;26;20003;-72
2024/04/19 06:31:04;;;;;;;1.85;1.27;;;;;;;15.02;48.38;100761.81;5358779;26;19999;-72
2024/04/19 06:33:30;;;;;;;2.03;1.42;;;;;;;15.01;48.80;100754.75;5357930;26;20007;-72
2024/04/19 06:35:57;;;;;;;3.00;1.25;;;;;;;15.05;48.47;100760.66;5387347;26;20007;-72
2024/04/19 06:38:23;;;;;;;1.40;1.10;;;;;;;15.06;48.98;100756.94;5356738;26;20007;-71
2024/04/19 06:40:48;;;;;;;1.50;1.02;;;;;;;15.08;48.58;100745.00;5357518;26;20011;-70
2024/04/19 06:43:15;;;;;;;1.13;1.00;;;;;;;15.12;48.91;100756.31;5386679;26;20004;-71
2024/04/19 06:45:41;;;;;;;2.05;1.10;;;;;;;15.13;48.80;100763.41;5386643;26;20412;-71
2024/04/19 06:48:07;;;;;;;3.45;1.10;;;;;;;15.17;48.88;100751.28;5357016;26;20003;-70
2024/04/19 06:50:32;;;;;;;0.93;0.85;;;;;;;15.22;49.11;100753.50;5416042;26;19996;-70
2024/04/19 06:52:58;;;;;;;0.88;0.70;;;;;;;15.27;48.97;100749.28;5356751;26;20470;-70
2024/04/19 06:55:23;;;;;;;2.00;0.80;;;;;;;15.32;48.99;100736.19;5386581;26;20064;-70
2024/04/19 06:57:49;;;;;;;3.03;0.98;;;;;;;15.33;48.49;100732.47;5356644;26;20339;-71
2024/04/19 07:00:14;;;;;;;1.27;0.77;;;;;;;15.37;48.59;100728.44;5386330;26;20361;-72
2024/04/19 07:02:40;;;;;;;1.00;0.90;;;;;;;15.36;48.76;100724.03;5386471;26;20014;-72
2024/04/19 07:05:05;;;;;;;1.02;0.80;;;;;;;15.40;49.08;100728.13;5417145;26;19999;-72
2024/04/19 07:07:31;;;;;;;0.70;0.70;;;;;;;15.45;48.73;100724.91;5386328;26;20406;-72
2024/04/19 07:09:56;;;;;;;1.65;1.20;;;;;;;15.52;48.72;100726.00;5385967;26;19998;-71
2024/04/19 07:12:22;;;;;;;0.77;0.73;;;;;;;15.59;48.58;100721.63;5415817;26;20018;-71
2024/04/19 07:14:48;;;;;;;0.80;0.73;;;;;;;15.67;48.87;100725.22;5386059;26;19991;-72
2024/04/19 07:17:14;;;;;;;1.95;1.30;;;;;;;15.71;48.95;100710.38;5385830;26;20436;-71
2024/04/19 07:19:40;;;;;;;3.25;1.30;;;;;;;15.74;49.32;100715.41;5356943;26;20004;-64
2024/04/19 07:22:05;;;;;;;1.73;1.23;;;;;;;15.76;48.85;100717.13;5357143;26;20451;-64
2024/04/19 07:24:31;;;;;;;1.20;1.10;;;;;;;15.77;48.95;100697.22;5327871;26;20309;-64
2024/04/19 07:26:56;;;;;;;2.85;1.25;;;;;;;15.81;48.71;100698.56;5356923;26;19999;-64
2024/04/19 07:29:22;;;;;;;2.20;1.33;;;;;;;15.88;48.95;100691.50;5417435;26;20004;-64
2024/04/19 07:31:47;;;;;;;2.17;1.42;;;;;;;15.91;48.98;100691.16;5416183;26;20014;-65
2024/04/19 07:34:13;;;;;;;2.13;1.55;;;;;;;15.98;48.89;100692.16;5417100;26;20038;-64
2024/04/19 07:36:38;;;;;;;3.63;1.77;;;;;;;16.01;49.28;100691.84;5356786;26;19991;-64
2024/04/19 07:39:04;;;;;;;2.08;1.50;;;;;;;16.11;48.63;100684.41;5356527;26;20006;-64
2024/04/19 07:41:29;;;;;;;1.75;1.30;;;;;;;16.21;48.83;100687.81;5385693;26;20015;-64
2024/04/19 07:43:55;;;;;;;2.33;1.67;;;;;;;16.25;48.92;100691.84;5385540;26;20010;-64
2024/04/19 07:46:20;;;;;;;1.85;1.48;;;;;;;16.33;48.66;100687.28;5356428;26;19995;-64
2024/04/19 07:48:46;;;;;;;2.55;1.52;;;;;;;16.43;48.30;100689.81;5356680;26;20336;-64
2024/04/19 07:51:11;;;;;;;4.05;2.03;;;;;;;16.49;48.84;100682.88;5356435;26;20035;-64
2024/04/19 07:53:37;;;;;;;4.65;2.05;;;;;;;16.55;49.08;100677.69;5356151;26;20085;-64
2024/04/19 07:56:02;;;;;;;2.97;2.10;;;;;;;16.62;48.72;100672.41;5356340;26;20011;-64
2024/04/19 07:58:28;;;;;;;3.58;2.03;;;;;;;16.67;48.83;100664.63;5385657;26;20313;-64
2024/04/19 08:00:54;;;;;;;3.30;2.42;;;;;;;16.72;48.89;100673.91;5385362;26;20000;-64
2024/04/19 08:03:19;;;;;;;2.53;2.30;;;;;;;16.75;48.77;100678.97;5385318;26;20080;-64
2024/04/19 08:05:46;;;;;;;3.28;2.22;;;;;;;16.77;48.95;100674.25;5385372;26;20043;-65
2024/04/19 08:08:11;;;;;;;3.45;2.80;;;;;;;16.81;48.93;100662.06;5385026;26;20011;-65
2024/04/19 08:10:37;;;;;;;3.13;2.40;;;;;;;16.89;49.13;100670.13;5384991;26;20018;-63
2024/04/19 08:13:04;;;;;;;7.30;2.78;;;;;;;16.97;49.25;100668.44;5355890;26;19999;-64
2024/04/19 08:15:29;;;;;;;6.35;2.70;;;;;;;17.00;48.78;100660.78;5356190;26;20361;-64
2024/04/19 08:17:55;;;;;;;4.78;2.60;;;;;;;17.05;48.94;100657.59;5416400;26;20004;-63
2024/04/19 08:20:20;;;;;;;5.10;2.42;;;;;;;17.08;48.93;100646.41;5355477;26;20003;-63
2024/04/19 08:22:46;;;;;;;4.15;3.10;;;;;;;17.11;49.32;100655.03;5385003;26;20427;-63
2024/04/19 08:25:11;;;;;;;4.68;3.05;;;;;;;17.12;48.89;100658.56;5384953;26;20450;-64
2024/04/19 08:27:37;;;;;;;3.97;2.35;;;;;;;17.17;49.11;100656.19;5355992;26;20011;-64
2024/04/19 08:30:03;;;;;;;3.88;2.38;;;;;;;17.26;48.56;100660.53;5327054;26;20022;-64
2024/04/19 08:32:28;;;;;;;4.43;2.35;;;;;;;17.24;49.27;100639.06;5384505;26;19999;-64
2024/04/19 08:34:56;;;;;;;3.58;3.10;;;;;;;17.26;48.86;100641.56;5415823;26;20521;-64
2024/04/19 08:37:22;;;;;;;4.00;2.30;;;;;;;17.26;49.42;100647.84;5385151;26;20006;-64
2024/04/19 08:39:51;;;;;;;6.47;2.60;;;;;;;17.30;49.30;100640.22;5355353;26;20007;-64
2024/04/19 08:42:17;;;;;;;5.65;2.72;;;;;;;17.32;49.48;100649.00;5385778;26;20003;-64
2024/04/19 08:44:46;;;;;;;4.90;2.70;;;;;;;17.45;48.70;100633.00;5359002;26;19999;-64
2024/04/19 08:47:15;;;;;;;3.80;2.78;;;;;;;17.58;48.65;100643.31;5388479;26;20405;-64
2024/04/19 08:49:43;;;;;;;3.72;2.70;;;;;;;17.59;49.01;100639.59;5387994;26;20011;-63
2024/04/19 08:52:09;;;;;;;3.80;2.25;;;;;;;17.62;48.73;100634.63;5359338;26;20018;-63
2024/04/19 08:54:35;;;;;;;3.20;2.45;;;;;;;17.89;48.99;100625.13;5358878;26;20339;-63
2024/04/19 08:57:01;;;;;;;5.30;3.05;;;;;;;18.48;47.77;100624.28;5388024;26;20007;-64
2024/04/19 08:59:37;;;;;;;7.18;2.97;;;;;;;18.87;47.48;100634.84;5359019;26;20000;-64
2024/04/19 09:02:02;;;;;;;7.30;2.78;;;;;;;19.05;47.64;100635.34;5359004;26;20000;-63
2024/04/19 09:04:28;;;;;;;10.35;2.90;;;;;;;19.14;48.28;100639.63;5388112;26;20453;-64
2024/04/19 09:06:53;;;;;;;4.07;2.42;;;;;;;19.15;47.58;100641.31;5418486;26;20013;-64
2024/04/19 09:09:19;;;;;;;3.88;2.70;;;;;;;19.17;47.52;100633.84;5388987;26;20039;-64
2024/04/19 09:11:45;;;;;;;5.30;2.42;;;;;;;19.15;47.86;100625.00;5360782;26;20022;-64
2024/04/19 09:14:11;;;;;;;7.40;2.85;;;;;;;19.33;47.83;100627.31;5361411;26;20069;-65
2024/04/19 09:16:36;;;;;;;4.32;3.28;;;;;;;19.52;47.78;100615.03;5390727;26;20017;-64
2024/04/19 09:19:02;;;;;;;3.35;2.20;;;;;;;19.46;47.92;100623.94;5359363;26;20008;-65
2024/04/19 09:21:28;;;;;;;4.35;3.20;;;;;;;19.34;47.63;100611.88;5388231;26;20000;-64
2024/04/19 09:23:57;;;;;;;6.05;2.33;;;;;;;19.23;48.39;100609.66;5418832;26;19996;-65
2024/04/19 09:26:22;;;;;;;5.30;2.40;;;;;;;19.17;47.57;100614.81;5359443;26;20011;-64
2024/04/19 09:28:57;;;;;;;6.40;3.72;;;;;;;19.08;48.26;100607.81;5388011;26;20073;-64
2024/04/19 09:31:22;;;;;;;3.30;2.60;;;;;;;18.98;47.92;100607.25;5387924;26;19999;-63
2024/04/19 09:33:48;;;;;;;8.13;2.72;;;;;;;18.89;48.52;100607.53;5387881;26;20004;-64
2024/04/19 09:36:20;;;;;;;3.45;2.50;;;;;;;18.81;47.88;100594.06;5329731;26;20003;-63
2024/04/19 09:38:46;;;;;;;4.10;3.08;;;;;;;18.76;47.82;100608.19;5359503;26;20000;-64
2024/04/19 09:41:15;;;;;;;3.50;2.42;;;;;;;18.71;47.91;100605.19;5418949;26;20436;-64
2024/04/19 09:43:49;;;;;;;4.35;1.80;;;;;;;18.66;48.19;100610.34;5387893;26;20011;-63
2024/04/19 09:46:21;;;;;;;3.72;1.70;;;;;;;18.60;48.36;100597.53;5388480;26;20340;-63
2024/04/19 09:48:47;;;;;;;3.00;1.42;;;;;;;18.57;47.86;100606.03;5359196;26;20008;-63
2024/04/19 09:51:15;;;;;;;2.72;1.75;;;;;;;18.54;48.36;100603.69;5359982;26;20004;-63
2024/04/19 09:53:44;;;;;;;5.15;1.67;;;;;;;18.47;48.33;100602.72;5417690;26;20016;-64
2024/04/19 09:56:12;;;;;;;4.15;1.58;;;;;;;18.37;47.84;100605.69;5418388;26;20003;-63
2024/04/19 09:58:38;;;;;;;2.08;1.33;;;;;;;18.30;48.55;100603.94;5418379;26;20076;-64
2024/04/19 10:01:04;;;;;;;3.38;1.45;;;;;;;18.21;48.04;100607.72;5386883;26;20374;-64
2024/04/19 10:03:30;;;;;;;1.95;0.85;;;;;;;18.14;48.50;100613.06;5387220;26;20007;-64
2024/04/19 10:05:56;;;;;;;3.67;1.15;;;;;;;18.02;48.30;100599.09;5358091;26;20372;-64
2024/04/19 10:08:27;;;;;;;2.80;1.00;;;;;;;17.97;48.70;100606.94;5357558;26;20003;-64
2024/04/19 10:10:54;;;;;;;2.40;1.15;;;;;;;17.99;48.28;100604.88;5387146;26;20004;-65
2024/04/19 10:13:21;;;;;;;0.70;0.50;;;;;;;17.95;48.37;100597.31;5358178;26;20015;-64
2024/04/19 10:15:47;;;;;;;4.38;0.73;;;;;;;17.95;48.30;100587.28;5387141;26;20080;-64
2024/04/19 10:18:12;;;;;;;4.78;0.80;;;;;;;17.95;47.93;100590.00;5357602;26;20003;-64
2024/04/19 10:20:41;;;;;;;0.65;0.65;;;;;;;17.97;48.11;100590.69;5387178;26;20016;-63
2024/04/19 10:23:13;;;;;;;2.90;0.50;;;;;;;18.02;48.16;100582.84;5386739;26;20335;-64
2024/04/19 10:25:39;;;;;;;1.30;0.40;;;;;;;18.06;48.04;100587.91;5358247;26;20339;-64
2024/04/19 10:28:16;;;;;;;4.05;0.75;;;;;;;18.11;48.03;100580.06;5357325;26;19995;-64
2024/04/19 10:30:42;;;;;;;1.17;0.70;;;;;;;18.14;47.80;100590.53;5357486;26;19995;-64
2024/04/19 10:33:11;;;;;;;1.00;0.47;;;;;;;18.11;48.18;100582.75;5417871;26;20047;-64
2024/04/19 10:35:46;;;;;;;4.28;1.05;;;;;;;18.06;48.09;100582.47;5386708;26;19995;-64
2024/04/19 10:38:12;;;;;;;0.73;0.70;;;;;;;18.08;48.15;100592.09;5386596;26;19999;-64
2024/04/19 10:40:38;;;;;;;3.95;1.00;;;;;;;18.05;48.01;100581.63;5386497;26;19999;-64
2024/04/19 10:43:07;;;;;;;3.35;1.00;;;;;;;18.05;48.57;100597.88;5386684;26;19999;-65
2024/04/19 10:45:36;;;;;;;2.33;0.77;;;;;;;18.00;48.39;100582.19;5357610;26;20032;-65
2024/04/19 10:48:03;;;;;;;2.97;1.08;;;;;;;18.01;48.24;100585.72;5328877;26;20047;-65
2024/04/19 10:50:30;;;;;;;2.35;0.95;;;;;;;17.98;49.00;100576.09;5357345;26;20011;-65
2024/04/19 10:52:57;;;;;;;3.13;0.73;;;;;;;17.94;48.14;100574.78;5357105;26;20004;-65
2024/04/19 10:55:27;;;;;;;0.52;0.52;;;;;;;17.94;48.66;100576.66;5386583;26;20014;-65
2024/04/19 10:57:53;;;;;;;0.50;0.43;;;;;;;17.94;47.99;100572.06;5387303;26;20050;-65
2024/04/19 11:00:18;;;;;;;1.40;0.43;;;;;;;17.95;47.94;100575.63;5356985;26;20015;-65
2024/04/19 11:02:44;;;;;;;1.60;0.50;;;;;;;18.02;47.93;100576.56;5386297;26;20018;-65
2024/04/19 11:05:11;;;;;;;0.70;0.43;;;;;;;18.07;47.86;100567.88;5355876;26;20008;-64
2024/04/19 11:07:38;;;;;;;0.28;0.28;;;;;;;18.13;48.22;100572.56;5386199;26;20008;-64
2024/04/19 11:10:04;;;;;;;0.63;0.43;;;;;;;18.13;48.14;100561.72;5385895;26;20076;-64
2024/04/19 11:12:29;;;;;;;4.82;0.60;;;;;;;18.12;47.39;100566.28;5417404;26;20080;-64
2024/04/19 11:14:57;;;;;;;0.80;0.45;;;;;;;18.14;47.81;100566.13;5386265;26;20405;-64
2024/04/19 11:17:22;;;;;;;2.15;0.57;;;;;;;18.15;48.05;100562.38;5357368;26;20039;-65
2024/04/19 11:19:48;;;;;;;1.52;0.30;;;;;;;18.22;47.96;100566.03;5386004;26;20000;-64
2024/04/19 11:22:14;;;;;;;2.42;0.30;;;;;;;18.21;47.70;100548.94;5385938;26;20018;-65
2024/04/19 11:24:40;;;;;;;1.02;0.52;;;;;;;18.22;48.10;100552.50;5385931;26;20000;-64
2024/04/19 11:27:06;;;;;;;2.30;0.38;;;;;;;18.33;47.42;100557.44;5357055;26;19999;-64